Time,TemperatureF,DewpointF,PressureIn,WindDirection,WindDirectionDegrees,WindSpeedMPH,WindSpeedGustMPH,Humidity,HourlyPrecipIn,Conditions,Clouds,dailyrainin,SolarRadiationWatts/m^2,SoftwareType,DateUTC
2013-06-03 00:02:00,62.8,62.6,29.80,ENE,58,0.0,0.0,99,0.00,,,-99.99,1.0,HOBO +U30 +Weather +,2013-06-03 04:02:00,
2013-06-03 00:03:00,62.8,62.5,29.80,ENE,58,0.0,0.0,98,0.00,,,-99.99,1.0,HOBO +U30 +Weather +,2013-06-03 04:03:00,
2013-06-03 00:12:00,62.7,62.6,29.80,ENE,58,0.0,0.0,99,0.00,,,-99.99,1.0,HOBO +U30 +Weather +,2013-06-03 04:12:00,
2013-06-03 00:13:00,62.8,62.6,29.80,ENE,58,0.0,0.0,99,0.00,,,-99.99,1.0,HOBO +U30 +Weather +,2013-06-03 04:13:00,
2013-06-03 00:22:00,62.7,62.6,29.80,ENE,58,0.0,0.0,99,0.00,,,-99.99,1.0,HOBO +U30 +Weather +,2013-06-03 04:22:00,
2013-06-03 00:23:00,62.7,62.6,29.80,ENE,58,0.0,0.0,99,0.00,,,-99.99,1.0,HOBO +U30 +Weather +,2013-06-03 04:23:00,
2013-06-03 00:32:00,62.8,62.7,29.80,ENE,58,0.0,0.0,99,0.00,,,-99.99,1.0,HOBO +U30 +Weather +,2013-06-03 04:32:00,
2013-06-03 00:33:00,62.7,62.6,29.80,ENE,58,0.0,0.0,99,0.00,,,-99.99,1.0,HOBO +U30 +Weather +,2013-06-03 04:33:00,
2013-06-03 00:42:00,62.8,62.7,29.80,East,79,0.0,0.0,99,0.00,,,-99.99,1.0,HOBO +U30 +Weather +,2013-06-03 04:42:00,
2013-06-03 00:43:00,62.8,62.8,29.80,ENE,58,0.0,0.0,99,0.00,,,-99.99,1.0,HOBO +U30 +Weather +,2013-06-03 04:43:00,
2013-06-03 00:52:00,62.8,62.7,29.80,ENE,60,0.0,0.0,99,0.00,,,-99.99,1.0,HOBO +U30 +Weather +,2013-06-03 04:52:00,
2013-06-03 00:53:00,62.8,62.7,29.80,ENE,77,0.0,0.0,99,0.00,,,-99.99,1.0,HOBO +U30 +Weather +,2013-06-03 04:53:00,
2013-06-03 01:02:00,62.8,62.8,29.80,ENE,67,0.0,0.0,99,0.00,,,-99.99,1.0,HOBO +U30 +Weather +,2013-06-03 05:02:00,
2013-06-03 01:03:00,62.8,62.7,29.80,ENE,62,0.0,0.0,99,0.00,,,-99.99,1.0,HOBO +U30 +Weather +,2013-06-03 05:03:00,
2013-06-03 01:12:00,62.8,62.9,29.80,ENE,74,0.0,0.0,99,0.00,,,-99.99,1.0,HOBO +U30 +Weather +,2013-06-03 05:12:00,
2013-06-03 01:13:00,62.8,62.9,29.80,ENE,69,0.0,0.0,99,0.00,,,-99.99,1.0,HOBO +U30 +Weather +,2013-06-03 05:13:00,
2013-06-03 01:22:00,62.7,62.8,29.79,ENE,77,0.0,0.0,100,0.00,,,-99.99,1.0,HOBO +U30 +Weather +,2013-06-03 05:22:00,
2013-06-03 01:23:00,62.8,62.9,29.80,ENE,76,0.0,0.0,99,0.00,,,-99.99,1.0,HOBO +U30 +Weather +,2013-06-03 05:23:00,
2013-06-03 01:24:00,62.7,62.8,29.79,ENE,69,0.0,0.0,100,0.00,,,-99.99,1.0,HOBO +U30 +Weather +,2013-06-03 05:24:00,
2013-06-03 01:32:00,62.8,62.8,29.79,East,79,0.0,0.0,100,0.00,,,-99.99,1.0,HOBO +U30 +Weather +,2013-06-03 05:32:00,
2013-06-03 01:33:00,62.8,62.8,29.79,East,79,0.0,0.0,100,0.00,,,-99.99,1.0,HOBO +U30 +Weather +,2013-06-03 05:33:00,
2013-06-03 01:34:00,62.7,62.8,29.79,ENE,70,0.0,0.0,100,0.00,,,-99.99,1.0,HOBO +U30 +Weather +,2013-06-03 05:34:00,
2013-06-03 01:42:00,62.8,62.9,29.79,East,80,0.0,0.0,100,0.00,,,-99.99,1.0,HOBO +U30 +Weather +,2013-06-03 05:42:00,
2013-06-03 01:43:00,62.8,62.8,29.79,East,81,0.0,0.0,100,0.00,,,-99.99,1.0,HOBO +U30 +Weather +,2013-06-03 05:43:00,
2013-06-03 01:52:00,62.8,62.9,29.79,East,80,0.0,0.0,100,0.00,,,-99.99,1.0,HOBO +U30 +Weather +,2013-06-03 05:52:00,
2013-06-03 01:53:00,62.8,62.9,29.80,East,79,0.0,0.0,100,0.00,,,-99.99,1.0,HOBO +U30 +Weather +,2013-06-03 05:53:00,
2013-06-03 01:54:00,62.8,62.9,29.79,East,80,0.0,0.0,100,0.00,,,-99.99,1.0,HOBO +U30 +Weather +,2013-06-03 05:54:00,
2013-06-03 02:02:00,62.7,62.8,29.79,East,81,0.0,0.0,100,0.00,,,-99.99,1.0,HOBO +U30 +Weather +,2013-06-03 06:02:00,
2013-06-03 02:03:00,62.7,62.8,29.79,East,81,0.0,0.0,100,0.00,,,-99.99,1.0,HOBO +U30 +Weather +,2013-06-03 06:03:00,
2013-06-03 02:04:00,62.8,62.8,29.79,East,80,0.0,0.0,100,0.00,,,-99.99,1.0,HOBO +U30 +Weather +,2013-06-03 06:04:00,
2013-06-03 02:12:00,62.7,62.7,29.78,East,79,0.0,0.0,100,0.00,,,-99.99,1.0,HOBO +U30 +Weather +,2013-06-03 06:12:00,
2013-06-03 02:13:00,62.7,62.8,29.79,East,81,0.0,0.0,100,0.00,,,-99.99,1.0,HOBO +U30 +Weather +,2013-06-03 06:13:00,
2013-06-03 02:22:00,62.7,62.7,29.77,East,81,0.0,0.0,100,0.00,,,-99.99,1.0,HOBO +U30 +Weather +,2013-06-03 06:22:00,
2013-06-03 02:23:00,62.7,62.7,29.78,East,79,0.0,0.0,100,0.00,,,-99.99,1.0,HOBO +U30 +Weather +,2013-06-03 06:23:00,
2013-06-03 02:32:00,62.5,62.6,29.78,ENE,77,0.0,0.0,100,0.00,,,-99.99,1.0,HOBO +U30 +Weather +,2013-06-03 06:32:00,
2013-06-03 02:33:00,62.7,62.7,29.78,East,81,0.0,0.0,100,0.00,,,-99.99,1.0,HOBO +U30 +Weather +,2013-06-03 06:33:00,
2013-06-03 02:42:00,62.6,62.6,29.78,East,81,0.0,0.0,100,0.00,,,-99.99,1.0,HOBO +U30 +Weather +,2013-06-03 06:42:00,
2013-06-03 02:43:00,62.5,62.6,29.77,East,79,0.0,0.0,100,0.00,,,-99.99,1.0,HOBO +U30 +Weather +,2013-06-03 06:43:00,
2013-06-03 02:44:00,62.6,62.6,29.78,East,81,0.0,0.0,100,0.00,,,-99.99,1.0,HOBO +U30 +Weather +,2013-06-03 06:44:00,
2013-06-03 02:52:00,62.7,62.7,29.77,East,79,0.0,0.0,100,0.00,,,-99.99,1.0,HOBO +U30 +Weather +,2013-06-03 06:52:00,
2013-06-03 02:53:00,62.7,62.7,29.77,East,79,0.0,0.0,100,0.00,,,-99.99,1.0,HOBO +U30 +Weather +,2013-06-03 06:53:00,
2013-06-03 02:54:00,62.6,62.6,29.78,East,83,0.0,0.0,100,0.00,,,-99.99,1.0,HOBO +U30 +Weather +,2013-06-03 06:54:00,
2013-06-03 03:02:00,62.8,62.8,29.77,East,83,0.0,0.0,100,0.00,,,-99.99,1.0,HOBO +U30 +Weather +,2013-06-03 07:02:00,
2013-06-03 03:03:00,62.7,62.7,29.77,East,79,0.0,0.0,100,0.00,,,-99.99,1.0,HOBO +U30 +Weather +,2013-06-03 07:03:00,
2013-06-03 03:12:00,62.8,62.8,29.77,East,83,0.0,0.0,100,0.00,,,-99.99,1.0,HOBO +U30 +Weather +,2013-06-03 07:12:00,
2013-06-03 03:13:00,62.8,62.9,29.75,ENE,73,0.0,0.0,100,0.00,,,-99.99,1.0,HOBO +U30 +Weather +,2013-06-03 07:13:00,
2013-06-03 03:22:00,62.7,62.8,29.76,East,79,0.0,0.0,100,0.00,,,-99.99,1.0,HOBO +U30 +Weather +,2013-06-03 07:22:00,
2013-06-03 03:23:00,62.8,62.9,29.76,ENE,76,0.0,0.0,100,0.00,,,-99.99,1.0,HOBO +U30 +Weather +,2013-06-03 07:23:00,
2013-06-03 03:32:00,62.6,62.7,29.76,ENE,74,0.0,0.0,100,0.00,,,-99.99,1.0,HOBO +U30 +Weather +,2013-06-03 07:32:00,
2013-06-03 03:33:00,62.7,62.8,29.76,East,79,0.0,0.0,100,0.00,,,-99.99,1.0,HOBO +U30 +Weather +,2013-06-03 07:33:00,
2013-06-03 03:42:00,62.6,62.7,29.76,ENE,74,0.0,0.0,100,0.00,,,-99.99,1.0,HOBO +U30 +Weather +,2013-06-03 07:42:00,
2013-06-03 03:43:00,62.6,62.7,29.76,ENE,58,0.0,0.0,100,0.00,,,-99.99,1.0,HOBO +U30 +Weather +,2013-06-03 07:43:00,
2013-06-03 03:52:00,62.5,62.5,29.77,ENE,62,0.0,0.0,100,0.00,,,-99.99,1.0,HOBO +U30 +Weather +,2013-06-03 07:52:00,
2013-06-03 03:53:00,62.6,62.7,29.76,ENE,58,0.0,0.0,100,0.00,,,-99.99,1.0,HOBO +U30 +Weather +,2013-06-03 07:53:00,
2013-06-03 04:02:00,62.5,62.5,29.78,East,79,0.0,0.0,100,0.00,,,-99.99,1.0,HOBO +U30 +Weather +,2013-06-03 08:02:00,
2013-06-03 04:12:00,62.4,62.4,29.79,ENE,77,0.0,0.0,100,0.00,,,-99.99,1.0,HOBO +U30 +Weather +,2013-06-03 08:12:00,
2013-06-03 04:22:00,62.8,62.9,29.79,ENE,77,0.0,0.0,100,0.00,,,-99.99,1.0,HOBO +U30 +Weather +,2013-06-03 08:22:00,
2013-06-03 04:23:00,63.0,63.1,29.78,East,79,0.0,0.0,100,0.00,,,-99.99,1.0,HOBO +U30 +Weather +,2013-06-03 08:23:00,
2013-06-03 04:32:00,63.0,63.1,29.79,ENE,74,0.0,0.0,100,0.00,,,-99.99,1.0,HOBO +U30 +Weather +,2013-06-03 08:32:00,
2013-06-03 04:33:00,63.0,63.1,29.78,East,79,0.0,0.0,100,0.00,,,-99.99,1.0,HOBO +U30 +Weather +,2013-06-03 08:33:00,
2013-06-03 04:42:00,63.2,63.2,29.78,ENE,77,0.0,0.0,100,0.00,,,-99.99,1.0,HOBO +U30 +Weather +,2013-06-03 08:42:00,
2013-06-03 04:43:00,63.0,63.1,29.78,ENE,76,0.0,0.0,100,0.00,,,-99.99,1.0,HOBO +U30 +Weather +,2013-06-03 08:43:00,
2013-06-03 04:52:00,63.3,63.3,29.78,East,79,0.0,0.0,100,0.00,,,-99.99,1.0,HOBO +U30 +Weather +,2013-06-03 08:52:00,
2013-06-03 04:53:00,63.2,63.2,29.78,ENE,77,0.0,0.0,100,0.00,,,-99.99,1.0,HOBO +U30 +Weather +,2013-06-03 08:53:00,
2013-06-03 05:02:00,63.0,63.1,29.78,East,79,0.0,0.0,100,0.00,,,-99.99,1.0,HOBO +U30 +Weather +,2013-06-03 09:02:00,
2013-06-03 05:03:00,63.2,63.2,29.78,East,79,0.0,0.0,100,0.00,,,-99.99,1.0,HOBO +U30 +Weather +,2013-06-03 09:03:00,
2013-06-03 05:12:00,62.7,62.8,29.78,East,80,0.0,0.0,100,0.00,,,-99.99,1.0,HOBO +U30 +Weather +,2013-06-03 09:12:00,
2013-06-03 05:13:00,63.0,63.0,29.78,East,79,0.0,0.0,100,0.00,,,-99.99,1.0,HOBO +U30 +Weather +,2013-06-03 09:13:00,
2013-06-03 05:22:00,62.6,62.7,29.78,East,79,0.0,0.0,100,0.00,,,-99.99,1.0,HOBO +U30 +Weather +,2013-06-03 09:22:00,
2013-06-03 05:23:00,62.7,62.7,29.79,East,79,0.0,0.0,100,0.00,,,-99.99,1.0,HOBO +U30 +Weather +,2013-06-03 09:23:00,
2013-06-03 05:32:00,62.6,62.7,29.78,East,79,0.0,0.0,100,0.00,,,-99.99,1.0,HOBO +U30 +Weather +,2013-06-03 09:32:00,
2013-06-03 05:33:00,62.6,62.7,29.78,East,80,0.0,0.0,100,0.00,,,-99.99,1.0,HOBO +U30 +Weather +,2013-06-03 09:33:00,
2013-06-03 05:42:00,62.7,62.7,29.78,ENE,77,0.0,0.0,100,0.00,,,-99.99,1.0,HOBO +U30 +Weather +,2013-06-03 09:42:00,
2013-06-03 05:43:00,62.6,62.7,29.78,East,80,0.0,0.0,100,0.00,,,-99.99,1.0,HOBO +U30 +Weather +,2013-06-03 09:43:00,
2013-06-03 05:52:00,62.8,62.9,29.78,East,79,0.0,0.0,100,0.00,,,-99.99,1.0,HOBO +U30 +Weather +,2013-06-03 09:52:00,
2013-06-03 05:53:00,62.7,62.8,29.78,ENE,77,0.0,0.0,100,0.00,,,-99.99,1.0,HOBO +U30 +Weather +,2013-06-03 09:53:00,
2013-06-03 06:02:00,63.0,63.0,29.78,ENE,77,0.0,0.0,100,0.00,,,-99.99,1.0,HOBO +U30 +Weather +,2013-06-03 10:02:00,
2013-06-03 06:03:00,62.9,62.9,29.78,East,79,0.0,0.0,100,0.00,,,-99.99,1.0,HOBO +U30 +Weather +,2013-06-03 10:03:00,
2013-06-03 06:12:00,63.1,63.2,29.77,ENE,77,0.0,0.0,100,0.00,,,-99.99,3.0,HOBO +U30 +Weather +,2013-06-03 10:12:00,
2013-06-03 06:13:00,63.0,63.0,29.78,ENE,76,0.0,0.0,100,0.00,,,-99.99,1.0,HOBO +U30 +Weather +,2013-06-03 10:13:00,
2013-06-03 06:22:00,63.4,63.4,29.78,ENE,77,0.0,0.0,100,0.00,,,-99.99,4.0,HOBO +U30 +Weather +,2013-06-03 10:22:00,
2013-06-03 06:23:00,63.2,63.2,29.77,East,79,0.0,0.0,100,0.00,,,-99.99,3.0,HOBO +U30 +Weather +,2013-06-03 10:23:00,
2013-06-03 06:32:00,63.3,63.3,29.78,ENE,77,0.0,0.0,100,0.00,,,-99.99,6.0,HOBO +U30 +Weather +,2013-06-03 10:32:00,
2013-06-03 06:33:00,63.4,63.4,29.78,ENE,77,0.0,0.0,100,0.00,,,-99.99,6.0,HOBO +U30 +Weather +,2013-06-03 10:33:00,
2013-06-03 06:42:00,63.0,63.0,29.78,ENE,77,0.0,0.0,100,0.00,,,-99.99,3.0,HOBO +U30 +Weather +,2013-06-03 10:42:00,
2013-06-03 06:43:00,63.2,63.2,29.78,ENE,77,0.0,0.0,100,0.00,,,-99.99,7.0,HOBO +U30 +Weather +,2013-06-03 10:43:00,
2013-06-03 06:52:00,62.9,62.9,29.79,ENE,77,0.0,0.0,100,0.00,,,-99.99,6.0,HOBO +U30 +Weather +,2013-06-03 10:52:00,
2013-06-03 06:53:00,63.0,63.0,29.78,ENE,77,0.0,0.0,100,0.00,,,-99.99,3.0,HOBO +U30 +Weather +,2013-06-03 10:53:00,
2013-06-03 07:02:00,62.8,62.9,29.78,ENE,76,0.0,0.0,100,0.00,,,-99.99,14.0,HOBO +U30 +Weather +,2013-06-03 11:02:00,
2013-06-03 07:03:00,62.9,62.9,29.79,ENE,77,0.0,0.0,100,0.00,,,-99.99,4.0,HOBO +U30 +Weather +,2013-06-03 11:03:00,
2013-06-03 07:12:00,62.9,63.0,29.79,ENE,76,0.0,0.0,100,0.00,,,-99.99,16.0,HOBO +U30 +Weather +,2013-06-03 11:12:00,
2013-06-03 07:22:00,63.0,63.0,29.79,ENE,77,0.0,0.0,100,0.00,,,-99.99,12.0,HOBO +U30 +Weather +,2013-06-03 11:22:00,
2013-06-03 07:32:00,63.0,63.1,29.80,ENE,77,0.0,0.0,100,0.00,,,-99.99,8.0,HOBO +U30 +Weather +,2013-06-03 11:32:00,
2013-06-03 07:42:00,63.1,63.1,29.80,ENE,77,0.0,0.0,100,0.00,,,-99.99,7.0,HOBO +U30 +Weather +,2013-06-03 11:42:00,
2013-06-03 07:52:00,63.1,63.2,29.79,East,79,0.0,0.0,100,0.00,,,-99.99,13.0,HOBO +U30 +Weather +,2013-06-03 11:52:00,
2013-06-03 08:02:00,63.5,63.6,29.79,East,79,0.0,0.0,100,0.00,,,-99.99,14.0,HOBO +U30 +Weather +,2013-06-03 12:02:00,
2013-06-03 08:12:00,63.6,63.7,29.79,East,79,0.0,0.0,100,0.00,,,-99.99,22.0,HOBO +U30 +Weather +,2013-06-03 12:12:00,
2013-06-03 08:22:00,64.4,64.4,29.79,East,80,0.0,0.0,100,0.00,,,-99.99,39.0,HOBO +U30 +Weather +,2013-06-03 12:22:00,
2013-06-03 08:32:00,64.6,64.7,29.79,East,79,0.0,0.0,100,0.00,,,-99.99,28.0,HOBO +U30 +Weather +,2013-06-03 12:32:00,
2013-06-03 08:42:00,65.2,65.3,29.80,East,79,0.0,0.0,100,0.00,,,-99.99,47.0,HOBO +U30 +Weather +,2013-06-03 12:42:00,
2013-06-03 08:52:00,65.3,65.4,29.79,East,79,0.0,0.0,100,0.00,,,-99.99,34.0,HOBO +U30 +Weather +,2013-06-03 12:52:00,
2013-06-03 09:02:00,64.6,64.6,29.79,East,79,0.0,0.0,100,0.00,,,-99.99,22.0,HOBO +U30 +Weather +,2013-06-03 13:02:00,
2013-06-03 09:12:00,64.7,64.7,29.79,East,79,0.0,0.0,100,0.00,,,-99.99,33.0,HOBO +U30 +Weather +,2013-06-03 13:12:00,
2013-06-03 09:22:00,64.8,64.8,29.79,East,79,0.0,0.0,100,0.00,,,-99.99,28.0,HOBO +U30 +Weather +,2013-06-03 13:22:00,
2013-06-03 09:23:00,65.0,65.0,29.79,ENE,76,0.0,0.0,100,0.00,,,-99.99,46.0,HOBO +U30 +Weather +,2013-06-03 13:23:00,
2013-06-03 09:32:00,65.3,65.3,29.79,ENE,76,0.0,0.0,100,0.00,,,-99.99,29.0,HOBO +U30 +Weather +,2013-06-03 13:32:00,
2013-06-03 09:33:00,65.0,65.0,29.80,ENE,76,0.0,0.0,100,0.00,,,-99.99,41.0,HOBO +U30 +Weather +,2013-06-03 13:33:00,
2013-06-03 09:42:00,65.2,65.2,29.79,ENE,76,0.0,0.0,100,0.00,,,-99.99,33.0,HOBO +U30 +Weather +,2013-06-03 13:42:00,
2013-06-03 09:52:00,65.1,65.1,29.79,ENE,74,0.0,0.0,100,0.00,,,-99.99,31.0,HOBO +U30 +Weather +,2013-06-03 13:52:00,
2013-06-03 10:02:00,66.2,66.2,29.78,ENE,74,0.0,0.0,100,0.00,,,-99.99,59.0,HOBO +U30 +Weather +,2013-06-03 14:02:00,
2013-06-03 10:12:00,64.8,64.8,29.78,ENE,74,0.0,0.0,100,0.00,,,-99.99,19.0,HOBO +U30 +Weather +,2013-06-03 14:12:00,
2013-06-03 10:22:00,63.6,63.6,29.79,ENE,76,0.0,0.0,100,0.00,,,-99.99,3.0,HOBO +U30 +Weather +,2013-06-03 14:22:00,
2013-06-03 10:32:00,63.6,63.7,29.79,ENE,76,0.0,0.0,100,0.00,,,-99.99,9.0,HOBO +U30 +Weather +,2013-06-03 14:32:00,
2013-06-03 10:33:00,63.2,63.2,29.78,East,79,0.0,0.0,100,0.00,,,-99.99,12.0,HOBO +U30 +Weather +,2013-06-03 14:33:00,
2013-06-03 10:42:00,63.1,63.1,29.77,East,79,0.0,0.0,100,0.00,,,-99.99,28.0,HOBO +U30 +Weather +,2013-06-03 14:42:00,
2013-06-03 10:43:00,63.2,63.2,29.78,East,79,0.0,0.0,100,0.00,,,-99.99,11.0,HOBO +U30 +Weather +,2013-06-03 14:43:00,
2013-06-03 10:52:00,63.3,63.3,29.78,East,79,0.0,0.0,100,0.00,,,-99.99,19.0,HOBO +U30 +Weather +,2013-06-03 14:52:00,
2013-06-03 11:02:00,64.0,64.0,29.78,East,79,0.0,0.0,100,0.00,,,-99.99,33.0,HOBO +U30 +Weather +,2013-06-03 15:02:00,
2013-06-03 11:12:00,64.0,64.0,29.78,ENE,77,0.0,0.0,100,0.00,,,-99.99,41.0,HOBO +U30 +Weather +,2013-06-03 15:12:00,
2013-06-03 11:13:00,65.0,65.0,29.78,East,79,0.0,0.0,100,0.00,,,-99.99,71.0,HOBO +U30 +Weather +,2013-06-03 15:13:00,
2013-06-03 11:22:00,65.9,65.9,29.77,ENE,74,0.0,0.0,100,0.00,,,-99.99,53.0,HOBO +U30 +Weather +,2013-06-03 15:22:00,
2013-06-03 11:23:00,65.1,65.2,29.78,ENE,77,0.0,0.0,100,0.00,,,-99.99,91.0,HOBO +U30 +Weather +,2013-06-03 15:23:00,
2013-06-03 11:32:00,65.7,65.7,29.78,ENE,74,0.0,0.0,100,0.00,,,-99.99,39.0,HOBO +U30 +Weather +,2013-06-03 15:32:00,
2013-06-03 11:42:00,64.5,64.6,29.78,East,79,0.0,0.0,100,0.00,,,-99.99,54.0,HOBO +U30 +Weather +,2013-06-03 15:42:00,
2013-06-03 11:43:00,64.1,64.1,29.78,ENE,77,0.0,0.0,100,0.00,,,-99.99,34.0,HOBO +U30 +Weather +,2013-06-03 15:43:00,
2013-06-03 11:52:00,63.8,63.9,29.78,ENE,77,0.0,0.0,100,0.00,,,-99.99,23.0,HOBO +U30 +Weather +,2013-06-03 15:52:00,
2013-06-03 11:53:00,64.2,64.2,29.78,ENE,77,0.0,0.0,100,0.00,,,-99.99,34.0,HOBO +U30 +Weather +,2013-06-03 15:53:00,
2013-06-03 12:02:00,63.9,63.9,29.78,ENE,77,0.0,0.0,100,0.00,,,-99.99,18.0,HOBO +U30 +Weather +,2013-06-03 16:02:00,
2013-06-03 12:12:00,63.1,63.1,29.78,East,79,0.0,0.0,100,0.00,,,-99.99,13.0,HOBO +U30 +Weather +,2013-06-03 16:12:00,
2013-06-03 12:22:00,63.3,63.3,29.77,East,79,0.0,0.0,100,0.00,,,-99.99,19.0,HOBO +U30 +Weather +,2013-06-03 16:22:00,
2013-06-03 12:23:00,64.0,64.0,29.77,ENE,77,0.0,0.0,100,0.00,,,-99.99,36.0,HOBO +U30 +Weather +,2013-06-03 16:23:00,
2013-06-03 12:32:00,65.0,65.0,29.78,East,79,0.0,0.0,100,0.00,,,-99.99,57.0,HOBO +U30 +Weather +,2013-06-03 16:32:00,
2013-06-03 12:33:00,64.0,64.0,29.78,ENE,77,0.0,0.0,100,0.00,,,-99.99,36.0,HOBO +U30 +Weather +,2013-06-03 16:33:00,
2013-06-03 12:42:00,65.2,65.3,29.77,East,80,0.0,0.0,100,0.00,,,-99.99,73.0,HOBO +U30 +Weather +,2013-06-03 16:42:00,
2013-06-03 12:52:00,65.2,65.2,29.77,ENE,77,0.0,0.0,100,0.00,,,-99.99,59.0,HOBO +U30 +Weather +,2013-06-03 16:52:00,
2013-06-03 13:02:00,66.4,66.5,29.78,East,80,0.0,0.0,100,0.00,,,-99.99,86.0,HOBO +U30 +Weather +,2013-06-03 17:02:00,
2013-06-03 13:12:00,67.6,67.6,29.78,East,79,0.0,0.0,100,0.00,,,-99.99,111.0,HOBO +U30 +Weather +,2013-06-03 17:12:00,
2013-06-03 13:22:00,66.1,66.2,29.78,East,80,0.0,0.0,100,0.00,,,-99.99,58.0,HOBO +U30 +Weather +,2013-06-03 17:22:00,
2013-06-03 13:23:00,65.7,65.7,29.78,ENE,70,0.0,0.0,100,0.00,,,-99.99,57.0,HOBO +U30 +Weather +,2013-06-03 17:23:00,
2013-06-03 13:32:00,65.1,65.2,29.78,ENE,73,0.0,0.0,100,0.00,,,-99.99,39.0,HOBO +U30 +Weather +,2013-06-03 17:32:00,
2013-06-03 13:33:00,65.5,65.6,29.77,ENE,70,0.0,0.0,100,0.00,,,-99.99,49.0,HOBO +U30 +Weather +,2013-06-03 17:33:00,
2013-06-03 13:42:00,65.1,65.2,29.78,ENE,73,0.0,0.0,100,0.00,,,-99.99,41.0,HOBO +U30 +Weather +,2013-06-03 17:42:00,
2013-06-03 13:52:00,65.8,65.8,29.77,ENE,73,0.0,0.0,100,0.00,,,-99.99,61.0,HOBO +U30 +Weather +,2013-06-03 17:52:00,
2013-06-03 14:02:00,65.5,65.5,29.77,ENE,73,0.0,0.0,100,0.00,,,-99.99,39.0,HOBO +U30 +Weather +,2013-06-03 18:02:00,
2013-06-03 14:12:00,64.5,64.6,29.77,ENE,73,0.0,0.0,100,0.00,,,-99.99,33.0,HOBO +U30 +Weather +,2013-06-03 18:12:00,
2013-06-03 14:22:00,64.0,64.1,29.77,ENE,73,0.0,0.0,100,0.00,,,-99.99,27.0,HOBO +U30 +Weather +,2013-06-03 18:22:00,
2013-06-03 14:32:00,65.4,65.4,29.76,ENE,73,0.0,0.0,100,0.00,,,-99.99,37.0,HOBO +U30 +Weather +,2013-06-03 18:32:00,
2013-06-03 14:42:00,64.9,65.0,29.76,ENE,72,0.0,0.0,100,0.00,,,-99.99,42.0,HOBO +U30 +Weather +,2013-06-03 18:42:00,
2013-06-03 14:52:00,64.9,65.0,29.76,ENE,76,0.0,0.0,100,0.00,,,-99.99,32.0,HOBO +U30 +Weather +,2013-06-03 18:52:00,
2013-06-03 15:02:00,65.0,65.0,29.76,East,79,0.0,0.0,100,0.00,,,-99.99,32.0,HOBO +U30 +Weather +,2013-06-03 19:02:00,
2013-06-03 15:12:00,64.3,64.3,29.76,East,80,0.0,0.0,100,0.00,,,-99.99,26.0,HOBO +U30 +Weather +,2013-06-03 19:12:00,
2013-06-03 15:22:00,63.9,63.9,29.77,East,80,0.0,0.0,100,0.00,,,-99.99,17.0,HOBO +U30 +Weather +,2013-06-03 19:22:00,
2013-06-03 15:32:00,63.8,63.8,29.77,East,80,0.0,0.0,100,0.00,,,-99.99,26.0,HOBO +U30 +Weather +,2013-06-03 19:32:00,
2013-06-03 15:42:00,63.8,63.8,29.76,East,81,0.0,0.0,100,0.00,,,-99.99,29.0,HOBO +U30 +Weather +,2013-06-03 19:42:00,
2013-06-03 15:52:00,63.6,63.6,29.76,East,80,0.0,0.0,100,0.00,,,-99.99,24.0,HOBO +U30 +Weather +,2013-06-03 19:52:00,
2013-06-03 15:53:00,63.6,63.6,29.76,East,80,0.0,0.0,100,0.00,,,-99.99,19.0,HOBO +U30 +Weather +,2013-06-03 19:53:00,
2013-06-03 16:02:00,63.4,63.5,29.76,East,81,0.0,0.0,100,0.00,,,-99.99,24.0,HOBO +U30 +Weather +,2013-06-03 20:02:00,
2013-06-03 16:03:00,63.6,63.6,29.76,East,80,0.0,0.0,100,0.00,,,-99.99,18.0,HOBO +U30 +Weather +,2013-06-03 20:03:00,
2013-06-03 16:12:00,63.4,63.5,29.76,East,81,0.0,0.0,100,0.00,,,-99.99,27.0,HOBO +U30 +Weather +,2013-06-03 20:12:00,
2013-06-03 16:13:00,63.4,63.4,29.76,East,81,0.0,0.0,100,0.00,,,-99.99,18.0,HOBO +U30 +Weather +,2013-06-03 20:13:00,
2013-06-03 16:22:00,63.1,63.1,29.76,East,81,0.0,0.0,100,0.00,,,-99.99,28.0,HOBO +U30 +Weather +,2013-06-03 20:22:00,
2013-06-03 16:23:00,63.4,63.4,29.76,East,81,0.0,0.0,100,0.00,,,-99.99,21.0,HOBO +U30 +Weather +,2013-06-03 20:23:00,
2013-06-03 16:32:00,63.1,63.1,29.76,East,81,0.0,0.0,100,0.00,,,-99.99,29.0,HOBO +U30 +Weather +,2013-06-03 20:32:00,
2013-06-03 16:42:00,62.8,62.8,29.75,East,80,0.0,0.0,100,0.00,,,-99.99,31.0,HOBO +U30 +Weather +,2013-06-03 20:42:00,
2013-06-03 16:43:00,63.3,63.3,29.76,East,81,0.0,0.0,100,0.00,,,-99.99,27.0,HOBO +U30 +Weather +,2013-06-03 20:43:00,
2013-06-03 16:52:00,63.9,63.9,29.75,East,80,0.0,0.0,100,0.00,,,-99.99,54.0,HOBO +U30 +Weather +,2013-06-03 20:52:00,
2013-06-03 16:53:00,63.4,63.4,29.75,East,81,0.0,0.0,100,0.00,,,-99.99,31.0,HOBO +U30 +Weather +,2013-06-03 20:53:00,
2013-06-03 17:02:00,63.8,63.8,29.75,East,80,0.0,0.0,100,0.00,,,-99.99,53.0,HOBO +U30 +Weather +,2013-06-03 21:02:00,
2013-06-03 17:12:00,64.5,64.5,29.75,East,79,0.0,0.0,100,0.00,,,-99.99,54.0,HOBO +U30 +Weather +,2013-06-03 21:12:00,
2013-06-03 17:22:00,65.4,65.5,29.75,East,80,0.0,0.0,100,0.00,,,-99.99,51.0,HOBO +U30 +Weather +,2013-06-03 21:22:00,
2013-06-03 17:32:00,64.8,64.8,29.75,East,80,0.0,0.0,100,0.00,,,-99.99,56.0,HOBO +U30 +Weather +,2013-06-03 21:32:00,
2013-06-03 17:42:00,64.2,64.2,29.76,East,81,0.0,0.0,100,0.00,,,-99.99,22.0,HOBO +U30 +Weather +,2013-06-03 21:42:00,
2013-06-03 17:43:00,63.2,63.2,29.75,East,81,0.0,0.0,100,0.00,,,-99.99,13.0,HOBO +U30 +Weather +,2013-06-03 21:43:00,
2013-06-03 17:52:00,63.2,63.2,29.75,East,81,0.0,0.0,100,0.00,,,-99.99,27.0,HOBO +U30 +Weather +,2013-06-03 21:52:00,
2013-06-03 17:53:00,63.1,63.1,29.75,East,81,0.0,0.0,100,0.00,,,-99.99,13.0,HOBO +U30 +Weather +,2013-06-03 21:53:00,
2013-06-03 18:02:00,63.3,63.3,29.75,East,81,0.0,0.0,100,0.00,,,-99.99,31.0,HOBO +U30 +Weather +,2013-06-03 22:02:00,
2013-06-03 18:12:00,63.1,63.2,29.75,East,81,0.0,0.0,100,0.00,,,-99.99,19.0,HOBO +U30 +Weather +,2013-06-03 22:12:00,
2013-06-03 18:13:00,63.2,63.2,29.75,East,79,0.0,0.0,100,0.00,,,-99.99,28.0,HOBO +U30 +Weather +,2013-06-03 22:13:00,
2013-06-03 18:22:00,63.0,63.0,29.75,East,79,0.0,0.0,100,0.00,,,-99.99,22.0,HOBO +U30 +Weather +,2013-06-03 22:22:00,
2013-06-03 18:23:00,63.1,63.1,29.75,East,79,0.0,0.0,100,0.00,,,-99.99,28.0,HOBO +U30 +Weather +,2013-06-03 22:23:00,
2013-06-03 18:32:00,63.0,63.0,29.75,East,79,0.0,0.0,100,0.00,,,-99.99,21.0,HOBO +U30 +Weather +,2013-06-03 22:32:00,
2013-06-03 18:33:00,63.2,63.2,29.74,East,80,0.0,0.0,100,0.00,,,-99.99,19.0,HOBO +U30 +Weather +,2013-06-03 22:33:00,
2013-06-03 18:42:00,62.9,62.9,29.75,East,80,0.0,0.0,100,0.00,,,-99.99,13.0,HOBO +U30 +Weather +,2013-06-03 22:42:00,
2013-06-03 18:43:00,63.3,63.3,29.74,East,80,0.0,0.0,100,0.00,,,-99.99,18.0,HOBO +U30 +Weather +,2013-06-03 22:43:00,
2013-06-03 18:52:00,62.6,62.7,29.75,East,79,0.0,0.0,100,0.00,,,-99.99,11.0,HOBO +U30 +Weather +,2013-06-03 22:52:00,
2013-06-03 18:53:00,62.8,62.9,29.75,East,80,0.0,0.0,100,0.00,,,-99.99,12.0,HOBO +U30 +Weather +,2013-06-03 22:53:00,
2013-06-03 19:02:00,62.7,62.7,29.75,East,80,0.0,0.0,100,0.00,,,-99.99,12.0,HOBO +U30 +Weather +,2013-06-03 23:02:00,
2013-06-03 19:12:00,62.6,62.7,29.75,ENE,77,0.0,0.0,100,0.00,,,-99.99,13.0,HOBO +U30 +Weather +,2013-06-03 23:12:00,
2013-06-03 19:22:00,62.7,62.7,29.75,East,79,0.0,0.0,100,0.00,,,-99.99,8.0,HOBO +U30 +Weather +,2013-06-03 23:22:00,
2013-06-03 19:32:00,62.8,62.8,29.75,East,79,0.0,0.0,100,0.00,,,-99.99,7.0,HOBO +U30 +Weather +,2013-06-03 23:32:00,
2013-06-03 19:42:00,63.0,63.0,29.75,East,80,0.0,0.0,100,0.00,,,-99.99,3.0,HOBO +U30 +Weather +,2013-06-03 23:42:00,
2013-06-03 19:52:00,62.9,62.9,29.75,East,80,0.0,0.0,100,0.00,,,-99.99,3.0,HOBO +U30 +Weather +,2013-06-03 23:52:00,
2013-06-03 20:02:00,62.9,62.9,29.75,East,80,0.0,0.0,100,0.00,,,-99.99,3.0,HOBO +U30 +Weather +,2013-06-04 00:02:00,
2013-06-03 20:12:00,62.5,62.6,29.75,East,79,0.0,0.0,100,0.00,,,-99.99,2.0,HOBO +U30 +Weather +,2013-06-04 00:12:00,
2013-06-03 20:22:00,62.3,62.3,29.75,ENE,76,0.0,0.0,100,0.00,,,-99.99,1.0,HOBO +U30 +Weather +,2013-06-04 00:22:00,
2013-06-03 20:32:00,62.5,62.5,29.75,East,80,0.0,0.0,100,0.00,,,-99.99,1.0,HOBO +U30 +Weather +,2013-06-04 00:32:00,
2013-06-03 20:42:00,62.4,62.4,29.75,East,80,0.0,0.0,100,0.00,,,-99.99,1.0,HOBO +U30 +Weather +,2013-06-04 00:42:00,
2013-06-03 20:43:00,62.5,62.5,29.75,East,80,0.0,0.0,100,0.00,,,-99.99,1.0,HOBO +U30 +Weather +,2013-06-04 00:43:00,
2013-06-03 20:52:00,62.5,62.6,29.75,East,80,0.0,0.0,100,0.00,,,-99.99,1.0,HOBO +U30 +Weather +,2013-06-04 00:52:00,
2013-06-03 20:53:00,62.5,62.5,29.74,East,80,0.0,0.0,100,0.00,,,-99.99,1.0,HOBO +U30 +Weather +,2013-06-04 00:53:00,
2013-06-03 21:02:00,62.5,62.6,29.75,East,80,0.0,0.0,100,0.00,,,-99.99,1.0,HOBO +U30 +Weather +,2013-06-04 01:02:00,
2013-06-03 21:12:00,62.4,62.4,29.75,East,80,0.0,0.0,100,0.00,,,-99.99,1.0,HOBO +U30 +Weather +,2013-06-04 01:12:00,
2013-06-03 21:13:00,62.4,62.4,29.75,East,80,0.0,0.0,100,0.00,,,-99.99,1.0,HOBO +U30 +Weather +,2013-06-04 01:13:00,
2013-06-03 21:22:00,62.3,62.3,29.75,East,79,0.0,0.0,100,0.00,,,-99.99,1.0,HOBO +U30 +Weather +,2013-06-04 01:22:00,
2013-06-03 21:23:00,62.4,62.4,29.75,East,80,0.0,0.0,100,0.00,,,-99.99,1.0,HOBO +U30 +Weather +,2013-06-04 01:23:00,
2013-06-03 21:32:00,62.3,62.3,29.75,East,79,0.0,0.0,100,0.00,,,-99.99,1.0,HOBO +U30 +Weather +,2013-06-04 01:32:00,
2013-06-03 21:33:00,62.3,62.3,29.75,East,80,0.0,0.0,100,0.00,,,-99.99,1.0,HOBO +U30 +Weather +,2013-06-04 01:33:00,
2013-06-03 21:42:00,62.3,62.3,29.75,East,79,0.0,0.0,100,0.00,,,-99.99,1.0,HOBO +U30 +Weather +,2013-06-04 01:42:00,
2013-06-03 21:43:00,62.3,62.3,29.75,East,79,0.0,0.0,100,0.00,,,-99.99,1.0,HOBO +U30 +Weather +,2013-06-04 01:43:00,
2013-06-03 21:52:00,62.2,62.3,29.75,East,79,0.0,0.0,100,0.00,,,-99.99,1.0,HOBO +U30 +Weather +,2013-06-04 01:52:00,
2013-06-03 21:53:00,62.2,62.2,29.76,East,79,0.0,0.0,100,0.00,,,-99.99,1.0,HOBO +U30 +Weather +,2013-06-04 01:53:00,
2013-06-03 22:02:00,62.1,62.1,29.76,East,79,0.0,0.0,100,0.00,,,-99.99,1.0,HOBO +U30 +Weather +,2013-06-04 02:02:00,
2013-06-03 22:03:00,62.2,62.2,29.75,East,79,0.0,0.0,100,0.00,,,-99.99,1.0,HOBO +U30 +Weather +,2013-06-04 02:03:00,
2013-06-03 22:12:00,62.1,62.1,29.75,East,79,0.0,0.0,100,0.00,,,-99.99,1.0,HOBO +U30 +Weather +,2013-06-04 02:12:00,
2013-06-03 22:13:00,62.1,62.1,29.75,East,79,0.0,0.0,100,0.00,,,-99.99,1.0,HOBO +U30 +Weather +,2013-06-04 02:13:00,
2013-06-03 22:22:00,62.1,62.1,29.75,East,79,0.0,0.0,100,0.00,,,-99.99,1.0,HOBO +U30 +Weather +,2013-06-04 02:22:00,
2013-06-03 22:23:00,62.1,62.1,29.75,East,79,0.0,0.0,100,0.00,,,-99.99,1.0,HOBO +U30 +Weather +,2013-06-04 02:23:00,
2013-06-03 22:32:00,62.1,62.1,29.75,East,79,0.0,0.0,100,0.00,,,-99.99,1.0,HOBO +U30 +Weather +,2013-06-04 02:32:00,
2013-06-03 22:42:00,62.0,62.1,29.75,East,80,0.0,0.0,100,0.00,,,-99.99,1.0,HOBO +U30 +Weather +,2013-06-04 02:42:00,
2013-06-03 22:52:00,62.0,62.0,29.75,East,79,0.0,0.0,100,0.00,,,-99.99,1.0,HOBO +U30 +Weather +,2013-06-04 02:52:00,
2013-06-03 23:02:00,61.8,61.9,29.74,ENE,77,0.0,0.0,100,0.00,,,-99.99,1.0,HOBO +U30 +Weather +,2013-06-04 03:02:00,
2013-06-03 23:12:00,61.8,61.8,29.74,East,79,0.0,0.0,100,0.00,,,-99.99,1.0,HOBO +U30 +Weather +,2013-06-04 03:12:00,
2013-06-03 23:22:00,61.7,61.7,29.73,East,79,0.0,0.0,100,0.00,,,-99.99,1.0,HOBO +U30 +Weather +,2013-06-04 03:22:00,
2013-06-03 23:32:00,61.7,61.7,29.73,East,79,0.0,0.0,100,0.00,,,-99.99,1.0,HOBO +U30 +Weather +,2013-06-04 03:32:00,
2013-06-03 23:42:00,61.6,61.6,29.73,East,79,0.0,0.0,100,0.00,,,-99.99,1.0,HOBO +U30 +Weather +,2013-06-04 03:42:00,
2013-06-03 23:43:00,61.7,61.7,29.73,East,79,0.0,0.0,100,0.00,,,-99.99,1.0,HOBO +U30 +Weather +,2013-06-04 03:43:00,
2013-06-03 23:52:00,61.6,61.6,29.73,East,79,0.0,0.0,100,0.00,,,-99.99,1.0,HOBO +U30 +Weather +,2013-06-04 03:52:00,
2013-06-03 23:53:00,61.7,61.7,29.73,East,79,0.0,0.0,100,0.00,,,-99.99,1.0,HOBO +U30 +Weather +,2013-06-04 03:53:00,